createdAt,value
2018-06-28T00:00:49.607Z,4.8
2018-06-28T00:02:49.671Z,4.8
2018-06-28T00:04:49.896Z,5.0
2018-06-28T00:06:50.176Z,5.0
2018-06-28T00:08:50.298Z,4.8
2018-06-28T00:10:49.672Z,4.8
2018-06-28T00:12:49.776Z,4.5
2018-06-28T00:14:49.854Z,4.9
2018-06-28T00:16:50.004Z,4.9
2018-06-28T00:18:50.077Z,5.1
2018-06-28T00:20:50.183Z,4.8
2018-06-28T00:22:50.357Z,4.8
2018-06-28T00:24:50.406Z,4.8
2018-06-28T00:26:49.714Z,4.5
2018-06-28T00:28:49.770Z,4.5
2018-06-28T00:30:49.943Z,4.4
2018-06-28T00:32:49.985Z,4.7
2018-06-28T00:34:50.341Z,5.0
2018-06-28T00:36:50.502Z,4.5
2018-06-28T00:38:49.562Z,4.5
2018-06-28T00:40:49.614Z,4.4
2018-06-28T00:42:49.714Z,4.5
2018-06-28T00:44:49.797Z,4.6
2018-06-28T00:46:49.982Z,4.6
2018-06-28T00:48:50.097Z,4.6
2018-06-28T00:50:50.178Z,4.6
2018-06-28T00:52:50.274Z,4.6
2018-06-28T00:54:50.339Z,4.6
2018-06-28T00:56:49.579Z,4.9
2018-06-28T00:58:49.676Z,4.9
2018-06-28T01:00:49.786Z,4.6
2018-06-28T01:02:49.901Z,4.7
2018-06-28T01:04:50.169Z,4.7
2018-06-28T01:06:50.456Z,4.7
2018-06-28T01:08:50.486Z,4.7
2018-06-28T01:10:49.608Z,4.3
2018-06-28T01:12:49.718Z,4.3
2018-06-28T01:14:49.779Z,4.6
2018-06-28T01:16:49.964Z,4.6
2018-06-28T01:18:50.039Z,4.6
2018-06-28T01:20:50.188Z,4.5
2018-06-28T01:22:50.237Z,4.4
2018-06-28T01:24:50.339Z,4.5
2018-06-28T01:26:50.514Z,4.5
2018-06-28T01:28:49.621Z,4.6
2018-06-28T01:30:49.702Z,4.8
2018-06-28T01:32:49.714Z,4.9
2018-06-28T01:34:49.976Z,4.5
2018-06-28T01:36:50.198Z,4.5
2018-06-28T01:38:50.327Z,4.5
2018-06-28T01:40:50.400Z,4.8
2018-06-28T01:42:49.555Z,4.8
2018-06-28T01:44:49.695Z,4.6
2018-06-28T01:46:50.030Z,4.6
2018-06-28T01:48:49.676Z,4.9
2018-06-28T01:50:49.784Z,4.9
2018-06-28T01:52:49.908Z,4.9
2018-06-28T01:54:49.998Z,4.9
2018-06-28T01:56:50.221Z,4.3
2018-06-28T01:58:50.290Z,4.8
2018-06-28T02:00:50.403Z,4.9
2018-06-28T02:02:50.473Z,4.9
2018-06-28T02:04:49.821Z,4.9
2018-06-28T02:06:50.029Z,4.9
2018-06-28T02:08:50.274Z,4.9
2018-06-28T02:10:50.394Z,5.0
2018-06-28T02:12:50.550Z,4.7
2018-06-28T02:14:49.596Z,4.7
2018-06-28T02:16:49.853Z,5.0
2018-06-28T02:18:49.937Z,5.1
2018-06-28T02:20:50.130Z,5.1
2018-06-28T02:22:50.252Z,4.9
2018-06-28T02:24:50.355Z,4.9
2018-06-28T02:26:49.542Z,5.2
2018-06-28T02:28:49.679Z,4.8
2018-06-28T02:30:49.789Z,4.8
2018-06-28T02:32:49.876Z,4.7
2018-06-28T02:34:50.242Z,4.7
2018-06-28T02:36:50.493Z,5.0
2018-06-28T02:38:49.582Z,5.1
2018-06-28T02:40:49.689Z,5.0
2018-06-28T02:42:49.761Z,5.3
2018-06-28T02:44:49.986Z,5.3
2018-06-28T02:46:50.271Z,5.2
2018-06-28T02:48:50.360Z,5.0
2018-06-28T02:50:50.430Z,5.0
2018-06-28T02:52:49.582Z,5.0
2018-06-28T02:54:49.774Z,5.2
2018-06-28T02:56:49.997Z,5.5
2018-06-28T02:58:50.091Z,5.4
2018-06-28T03:00:50.145Z,5.0
2018-06-28T03:02:50.298Z,5.0
2018-06-28T03:04:49.548Z,5.4
2018-06-28T03:06:49.793Z,5.1
2018-06-28T03:08:49.957Z,5.1
2018-06-28T03:10:50.073Z,5.6
2018-06-28T03:12:50.215Z,5.6
2018-06-28T03:14:50.359Z,5.4
2018-06-28T03:16:49.681Z,5.6
2018-06-28T03:18:49.789Z,5.6
2018-06-28T03:20:49.878Z,5.8
2018-06-28T03:22:50.087Z,5.8
2018-06-28T03:24:50.248Z,5.4
2018-06-28T03:26:49.518Z,5.6
2018-06-28T03:28:49.575Z,5.8
2018-06-28T03:30:49.784Z,6.0
2018-06-28T03:32:50.287Z,6.0
2018-06-28T03:34:49.518Z,5.8
2018-06-28T03:36:49.755Z,6.0
2018-06-28T03:38:49.831Z,6.1
2018-06-28T03:40:49.926Z,6.1
2018-06-28T03:42:50.019Z,6.0
2018-06-28T03:44:50.131Z,5.8
2018-06-28T03:46:50.448Z,6.1
2018-06-28T03:48:49.709Z,5.8
2018-06-28T03:50:49.783Z,5.8
2018-06-28T03:52:49.815Z,5.8
2018-06-28T03:54:49.871Z,5.7
2018-06-28T03:56:50.039Z,5.5
2018-06-28T03:58:50.271Z,5.9
2018-06-28T04:00:50.478Z,5.9
2018-06-28T04:02:49.590Z,5.6
2018-06-28T04:04:49.916Z,5.6
2018-06-28T04:06:50.174Z,5.3
2018-06-28T04:08:50.300Z,5.3
2018-06-28T04:10:50.338Z,5.2
2018-06-28T04:12:50.399Z,5.4
2018-06-28T04:14:49.597Z,5.3
2018-06-28T04:16:49.979Z,5.3
2018-06-28T04:18:50.108Z,5.1
2018-06-28T04:20:50.192Z,5.1
2018-06-28T04:22:50.274Z,5.5
2018-06-28T04:24:50.320Z,5.3
2018-06-28T04:26:49.562Z,5.4
2018-06-28T04:28:49.859Z,5.4
2018-06-28T04:30:49.933Z,5.1
2018-06-28T04:32:50.069Z,5.4
2018-06-28T04:34:50.325Z,5.4
2018-06-28T04:36:50.533Z,5.4
2018-06-28T04:38:49.634Z,5.3
2018-06-28T04:40:49.680Z,5.4
2018-06-28T04:42:49.976Z,5.5
2018-06-28T04:44:50.090Z,5.2
2018-06-28T04:46:50.245Z,5.2
2018-06-28T04:48:50.285Z,5.6
2018-06-28T04:50:50.392Z,5.4
2018-06-28T04:52:50.395Z,5.3
2018-06-28T04:54:50.496Z,5.3
2018-06-28T04:56:49.765Z,5.1
2018-06-28T04:58:49.829Z,5.1
2018-06-28T05:00:50.000Z,5.3
2018-06-28T05:02:50.079Z,4.8
2018-06-28T05:04:50.288Z,5.3
2018-06-28T05:06:50.476Z,5.6
2018-06-28T05:08:49.550Z,5.6
2018-06-28T05:10:49.607Z,5.5
2018-06-28T05:12:49.662Z,5.1
2018-06-28T05:14:49.726Z,5.1
2018-06-28T05:16:49.852Z,5.1
2018-06-28T05:18:49.917Z,5.0
2018-06-28T05:20:50.034Z,5.0
2018-06-28T05:22:50.113Z,5.1
2018-06-28T05:24:50.215Z,5.0
2018-06-28T05:26:50.338Z,5.5
2018-06-28T05:28:50.369Z,5.5
2018-06-28T05:30:49.541Z,5.0
2018-06-28T05:32:49.585Z,5.6
2018-06-28T05:34:49.950Z,5.4
2018-06-28T05:36:49.916Z,5.4
2018-06-28T05:38:49.954Z,5.0
2018-06-28T05:40:50.088Z,5.1
2018-06-28T05:42:50.219Z,5.2
2018-06-28T05:44:50.283Z,5.0
2018-06-28T05:46:50.524Z,5.0
2018-06-28T05:48:49.613Z,4.9
2018-06-28T05:50:49.689Z,4.9
2018-06-28T05:52:49.793Z,4.9
2018-06-28T05:54:49.862Z,4.9
2018-06-28T05:56:50.064Z,4.9
2018-06-28T05:58:50.190Z,4.5
2018-06-28T06:00:50.303Z,4.7
2018-06-28T06:02:50.375Z,4.7
2018-06-28T06:04:49.690Z,4.8
2018-06-28T06:06:49.955Z,4.8
2018-06-28T06:08:50.128Z,4.3
2018-06-28T06:10:50.222Z,4.7
2018-06-28T06:12:50.318Z,4.6
2018-06-28T06:14:50.393Z,4.7
2018-06-28T06:16:49.657Z,4.7
2018-06-28T06:18:49.903Z,4.6
2018-06-28T06:20:49.980Z,4.4
2018-06-28T06:22:50.046Z,4.1
2018-06-28T06:24:50.254Z,4.1
2018-06-28T06:26:49.582Z,4.3
2018-06-28T06:28:49.691Z,6.3
2018-06-28T06:30:49.936Z,4.4
2018-06-28T06:32:50.000Z,4.4
2018-06-28T06:34:50.223Z,4.2
2018-06-28T06:36:50.457Z,4.6
2018-06-28T06:38:50.525Z,4.5
2018-06-28T06:40:49.604Z,4.6
2018-06-28T06:42:49.683Z,4.3
2018-06-28T06:44:49.747Z,4.3
2018-06-28T06:46:49.920Z,4.0
2018-06-28T06:48:50.191Z,4.3
2018-06-28T06:50:50.030Z,4.4
2018-06-28T06:52:50.118Z,4.4
2018-06-28T06:54:50.229Z,4.3
2018-06-28T06:56:50.457Z,4.7
2018-06-28T06:58:50.507Z,4.0
2018-06-28T07:00:49.716Z,4.0
2018-06-28T07:02:49.792Z,4.0
2018-06-28T07:04:50.078Z,4.3
2018-06-28T07:06:50.281Z,4.0
2018-06-28T07:08:50.428Z,4.1
2018-06-28T07:10:49.742Z,4.1
2018-06-28T07:12:49.878Z,3.6
2018-06-28T07:14:49.934Z,4.9
2018-06-28T07:16:50.252Z,4.2
2018-06-28T07:18:50.390Z,4.0
2018-06-28T07:20:50.489Z,4.0
2018-06-28T07:22:49.840Z,4.0
2018-06-28T07:24:49.803Z,4.1
2018-06-28T07:26:50.011Z,4.0
2018-06-28T07:28:50.117Z,4.1
2018-06-28T07:30:49.911Z,4.3
2018-06-28T07:32:50.011Z,4.3
2018-06-28T07:34:50.397Z,3.9
2018-06-28T07:36:49.617Z,4.3
2018-06-28T07:38:49.701Z,4.0
2018-06-28T07:40:49.949Z,3.8
2018-06-28T07:42:50.025Z,3.8
2018-06-28T07:44:50.089Z,3.7
2018-06-28T07:46:50.482Z,3.9
2018-06-28T07:48:49.924Z,4.3
2018-06-28T07:50:49.989Z,3.7
2018-06-28T07:52:50.056Z,3.7
2018-06-28T07:54:50.095Z,3.8
2018-06-28T07:56:50.283Z,3.7
2018-06-28T07:58:50.470Z,3.8
2018-06-28T08:00:49.572Z,3.8
2018-06-28T08:02:49.672Z,3.8
2018-06-28T08:04:49.889Z,3.9
2018-06-28T08:06:50.032Z,3.9
2018-06-28T08:08:50.129Z,3.9
2018-06-28T08:10:50.204Z,3.6
2018-06-28T08:12:50.273Z,3.6
2018-06-28T08:14:50.315Z,3.7
2018-06-28T08:16:50.501Z,3.7
2018-06-28T08:18:49.847Z,3.6
2018-06-28T08:20:49.930Z,3.6
2018-06-28T08:22:50.131Z,3.7
2018-06-28T08:24:50.260Z,3.8
2018-06-28T08:26:49.600Z,3.6
2018-06-28T08:28:49.925Z,3.6
2018-06-28T08:30:50.046Z,4.6
2018-06-28T08:32:50.115Z,3.8
2018-06-28T08:34:50.375Z,3.9
2018-06-28T08:36:49.717Z,4.2
2018-06-28T08:38:49.835Z,4.2
2018-06-28T08:40:49.873Z,4.0
2018-06-28T08:42:49.903Z,3.5
2018-06-28T08:44:49.980Z,3.7
2018-06-28T08:46:50.163Z,3.8
2018-06-28T08:48:50.258Z,3.7
2018-06-28T08:50:50.312Z,3.7
2018-06-28T08:52:50.470Z,3.9
2018-06-28T08:54:50.520Z,3.8
2018-06-28T08:56:49.792Z,3.9
2018-06-28T08:58:50.006Z,3.9
2018-06-28T09:00:50.097Z,3.5
2018-06-28T09:02:50.140Z,4.2
2018-06-28T09:04:50.400Z,4.2
2018-06-28T09:06:49.736Z,3.7
2018-06-28T09:08:49.812Z,3.6
2018-06-28T09:10:49.848Z,3.6
2018-06-28T09:12:49.905Z,3.8
2018-06-28T09:14:49.973Z,3.5
2018-06-28T09:16:50.236Z,3.5
2018-06-28T09:18:50.424Z,3.5
2018-06-28T09:20:49.533Z,3.1
2018-06-28T09:22:49.674Z,3.6
2018-06-28T09:24:50.076Z,3.4
2018-06-28T09:26:50.290Z,3.4
2018-06-28T09:28:50.374Z,3.4
2018-06-28T09:30:50.426Z,3.0
2018-06-28T09:32:50.488Z,3.1
2018-06-28T09:34:49.769Z,3.3
2018-06-28T09:36:49.920Z,3.3
2018-06-28T09:38:49.968Z,3.5
2018-06-28T09:40:50.117Z,3.4
2018-06-28T09:42:50.189Z,3.2
2018-06-28T09:44:50.254Z,3.6
2018-06-28T09:46:49.601Z,3.2
2018-06-28T09:48:49.793Z,3.2
2018-06-28T09:50:49.928Z,3.4
2018-06-28T09:52:49.949Z,3.4
2018-06-28T09:54:50.322Z,3.6
2018-06-28T09:56:49.895Z,3.6
2018-06-28T09:58:49.994Z,3.6
2018-06-28T10:00:50.044Z,3.7
2018-06-28T10:02:49.987Z,3.2
2018-06-28T10:04:50.328Z,3.3
2018-06-28T10:06:49.676Z,3.3
2018-06-28T10:08:50.049Z,3.3
2018-06-28T10:10:50.137Z,3.3
2018-06-28T10:12:50.251Z,3.5
2018-06-28T10:14:50.708Z,3.6
2018-06-28T10:16:49.653Z,3.6
2018-06-28T10:18:49.764Z,3.5
2018-06-28T10:20:49.786Z,3.5
2018-06-28T10:22:49.878Z,3.6
2018-06-28T10:24:49.988Z,3.6
2018-06-28T10:26:50.175Z,3.3
2018-06-28T10:28:50.222Z,3.4
2018-06-28T10:30:50.324Z,3.4
2018-06-28T10:32:50.563Z,3.4
2018-06-28T10:34:50.300Z,3.5
2018-06-28T10:36:49.552Z,3.7
2018-06-28T10:38:49.618Z,3.2
2018-06-28T10:40:49.881Z,3.3
2018-06-28T10:42:50.378Z,3.4
2018-06-28T10:44:50.485Z,3.4
2018-06-28T10:46:49.763Z,3.6
2018-06-28T10:48:49.865Z,3.3
2018-06-28T10:50:49.964Z,3.2
2018-06-28T10:52:49.997Z,3.3
2018-06-28T10:54:50.116Z,3.3
2018-06-28T10:56:50.302Z,3.3
2018-06-28T10:58:50.384Z,3.0
2018-06-28T11:00:50.405Z,3.1
2018-06-28T11:02:49.587Z,3.1
2018-06-28T11:04:49.834Z,3.1
2018-06-28T11:06:49.991Z,3.4
2018-06-28T11:08:50.108Z,3.3
2018-06-28T11:10:50.187Z,3.3
2018-06-28T11:12:50.299Z,3.3
2018-06-28T11:14:50.450Z,3.2
2018-06-28T11:16:49.756Z,3.2
2018-06-28T11:18:49.855Z,3.0
2018-06-28T11:20:49.922Z,3.1
2018-06-28T11:22:50.132Z,3.1
2018-06-28T11:24:50.207Z,3.5
2018-06-28T11:26:50.409Z,2.9
2018-06-28T11:28:50.462Z,3.1
2018-06-28T11:30:49.567Z,3.1
2018-06-28T11:32:49.695Z,3.1
2018-06-28T11:34:49.883Z,3.1
2018-06-28T11:36:50.187Z,3.2
2018-06-28T11:38:50.238Z,3.0
2018-06-28T11:40:50.579Z,2.9
2018-06-28T11:42:49.624Z,2.9
2018-06-28T11:44:49.701Z,3.1
2018-06-28T11:46:49.875Z,2.9
2018-06-28T11:48:49.906Z,3.1
2018-06-28T11:50:50.013Z,3.1
2018-06-28T11:52:50.096Z,3.2
2018-06-28T11:54:50.200Z,2.9
2018-06-28T11:56:50.350Z,2.9
2018-06-28T11:58:50.467Z,3.0
2018-06-28T12:00:49.533Z,2.7
2018-06-28T12:02:49.658Z,2.7
2018-06-28T12:04:50.013Z,3.2
2018-06-28T12:06:50.213Z,3.2
2018-06-28T12:08:50.328Z,2.6
2018-06-28T12:10:50.420Z,2.8
2018-06-28T12:12:50.500Z,2.8
2018-06-28T12:14:49.535Z,2.5
2018-06-28T12:16:50.105Z,2.8
2018-06-28T12:18:50.359Z,2.6
2018-06-28T12:20:49.553Z,2.8
2018-06-28T12:22:49.636Z,2.8
2018-06-28T12:24:49.651Z,2.8
2018-06-28T12:26:49.856Z,4.4
2018-06-28T12:28:49.927Z,3.1
2018-06-28T12:30:50.014Z,3.1
2018-06-28T12:32:50.203Z,4.1
2018-06-28T12:34:50.461Z,2.6
2018-06-28T12:36:49.606Z,2.6
2018-06-28T12:38:49.705Z,3.0
2018-06-28T12:40:49.808Z,3.0
2018-06-28T12:42:49.861Z,2.6
2018-06-28T12:44:49.936Z,2.5
2018-06-28T12:46:50.107Z,2.5
2018-06-28T12:48:49.690Z,3.4
2018-06-28T12:50:49.757Z,3.4
2018-06-28T12:52:49.829Z,3.0
2018-06-28T12:54:49.846Z,2.6
2018-06-28T12:56:50.013Z,3.2
2018-06-28T12:58:50.104Z,3.2
2018-06-28T13:00:50.208Z,3.0
2018-06-28T13:02:50.259Z,3.2
2018-06-28T13:04:50.519Z,3.0
2018-06-28T13:06:49.721Z,3.0
2018-06-28T13:08:49.770Z,3.0
2018-06-28T13:10:49.868Z,3.0
2018-06-28T13:12:49.905Z,3.2
2018-06-28T13:14:49.970Z,3.0
2018-06-28T13:16:50.094Z,3.5
2018-06-28T13:18:50.494Z,3.5
2018-06-28T13:20:50.310Z,3.2
2018-06-28T13:22:50.471Z,3.8
2018-06-28T13:24:50.784Z,3.1
2018-06-28T13:26:49.593Z,3.0
2018-06-28T13:28:49.727Z,3.0
2018-06-28T13:30:49.786Z,3.2
2018-06-28T13:32:49.950Z,3.2
2018-06-28T13:34:50.291Z,3.1
2018-06-28T13:36:50.470Z,3.1
2018-06-28T13:38:49.524Z,3.2
2018-06-28T13:40:49.989Z,3.2
2018-06-28T13:42:50.004Z,3.3
2018-06-28T13:44:50.052Z,3.3
2018-06-28T13:46:50.235Z,3.1
2018-06-28T13:48:50.380Z,3.3
2018-06-28T13:50:50.496Z,3.1
2018-06-28T13:52:50.509Z,3.5
2018-06-28T13:54:49.601Z,3.3
2018-06-28T13:56:49.745Z,3.3
2018-06-28T13:58:49.818Z,3.3
2018-06-28T14:00:49.953Z,3.6
2018-06-28T14:02:50.003Z,3.2
2018-06-28T14:04:50.302Z,3.7
2018-06-28T14:06:50.487Z,3.7
2018-06-28T14:08:49.664Z,3.7
2018-06-28T14:10:49.819Z,3.8
2018-06-28T14:12:49.865Z,3.8
2018-06-28T14:14:49.982Z,3.1
2018-06-28T14:16:50.131Z,3.1
2018-06-28T14:18:50.452Z,3.5
2018-06-28T14:20:49.843Z,3.4
2018-06-28T14:22:49.957Z,3.2
2018-06-28T14:24:50.078Z,4.2
2018-06-28T14:26:50.254Z,4.2
2018-06-28T14:28:50.364Z,3.4
2018-06-28T14:30:50.501Z,3.6
2018-06-28T14:32:49.701Z,3.7
2018-06-28T14:34:50.054Z,3.7
2018-06-28T14:36:50.309Z,3.8
2018-06-28T14:38:49.612Z,3.8
2018-06-28T14:40:49.734Z,4.1
2018-06-28T14:42:49.781Z,4.4
2018-06-28T14:44:50.016Z,4.9
2018-06-28T14:46:49.622Z,4.9
2018-06-28T14:48:49.673Z,4.7
2018-06-28T14:50:49.907Z,4.8
2018-06-28T14:52:49.996Z,5.1
2018-06-28T14:54:50.216Z,5.1
2018-06-28T14:56:50.464Z,4.7
2018-06-28T14:58:49.822Z,5.1
2018-06-28T15:00:49.914Z,4.4
2018-06-28T15:02:49.974Z,4.5
2018-06-28T15:04:50.263Z,4.5
2018-06-28T15:06:50.404Z,4.5
2018-06-28T15:08:50.479Z,5.2
2018-06-28T15:10:49.584Z,4.8
2018-06-28T15:12:49.667Z,4.5
2018-06-28T15:14:49.731Z,4.5
2018-06-28T15:16:49.959Z,4.2
2018-06-28T15:18:50.001Z,4.7
2018-06-28T15:20:50.128Z,4.3
2018-06-28T15:22:50.408Z,4.5
2018-06-28T15:24:50.504Z,4.5
2018-06-28T15:26:49.748Z,4.3
2018-06-28T15:28:49.897Z,4.4
2018-06-28T15:30:50.117Z,4.3
2018-06-28T15:32:50.263Z,4.3
2018-06-28T15:34:49.573Z,4.0
2018-06-28T15:36:49.746Z,4.2
2018-06-28T15:38:49.869Z,4.2
2018-06-28T15:40:50.019Z,4.2
2018-06-28T15:42:50.142Z,4.2
2018-06-28T15:44:50.272Z,4.0
2018-06-28T15:46:50.450Z,4.2
2018-06-28T15:48:49.549Z,3.6
2018-06-28T15:50:49.664Z,3.9
2018-06-28T15:52:49.740Z,3.9
2018-06-28T15:54:49.900Z,4.0
2018-06-28T15:56:50.171Z,3.8
2018-06-28T15:58:50.263Z,3.8
2018-06-28T16:00:50.341Z,3.9
2018-06-28T16:02:49.579Z,3.9
2018-06-28T16:04:50.257Z,3.6
2018-06-28T16:06:50.458Z,3.6
2018-06-28T16:08:49.555Z,3.8
2018-06-28T16:10:49.662Z,4.2
2018-06-28T16:12:50.050Z,4.2
2018-06-28T16:14:50.179Z,3.8
2018-06-28T16:16:50.492Z,3.7
2018-06-28T16:18:49.590Z,3.7
2018-06-28T16:20:49.765Z,3.7
2018-06-28T16:22:49.964Z,3.6
2018-06-28T16:24:50.127Z,4.0
2018-06-28T16:26:50.386Z,3.9
2018-06-28T16:28:50.542Z,3.9
2018-06-28T16:30:49.633Z,3.9
2018-06-28T16:32:49.724Z,4.0
2018-06-28T16:34:50.064Z,3.7
2018-06-28T16:36:50.367Z,3.8
2018-06-28T16:38:50.472Z,3.9
2018-06-28T16:40:49.604Z,3.9
2018-06-28T16:42:49.714Z,3.8
2018-06-28T16:44:49.802Z,4.2
2018-06-28T16:46:50.055Z,4.1
2018-06-28T16:48:50.202Z,4.1
2018-06-28T16:50:50.288Z,4.0
2018-06-28T16:52:50.515Z,3.9
2018-06-28T16:54:49.590Z,4.2
2018-06-28T16:56:49.819Z,4.2
2018-06-28T16:58:49.908Z,3.9
2018-06-28T17:00:50.022Z,4.3
2018-06-28T17:02:50.285Z,4.2
2018-06-28T17:04:49.526Z,4.7
2018-06-28T17:06:49.818Z,4.4
2018-06-28T17:08:49.924Z,4.4
2018-06-28T17:10:50.004Z,4.2
2018-06-28T17:12:50.194Z,4.3
2018-06-28T17:14:50.413Z,4.3
2018-06-28T17:16:49.661Z,4.3
2018-06-28T17:18:49.704Z,4.3
2018-06-28T17:20:49.960Z,4.5
2018-06-28T17:22:50.100Z,4.4
2018-06-28T17:24:50.187Z,4.6
2018-06-28T17:26:50.440Z,4.6
2018-06-28T17:28:49.550Z,4.6
2018-06-28T17:30:49.635Z,4.5
2018-06-28T17:32:49.783Z,4.4
2018-06-28T17:34:50.325Z,4.6
2018-06-28T17:36:49.635Z,5.0
2018-06-28T17:38:49.788Z,5.0
2018-06-28T17:40:49.901Z,4.6
2018-06-28T17:42:50.045Z,4.9
2018-06-28T17:44:49.567Z,4.5
2018-06-28T17:46:49.747Z,4.5
2018-06-28T17:48:49.896Z,5.0
2018-06-28T17:50:50.027Z,4.8
2018-06-28T17:52:50.367Z,5.1
2018-06-28T17:54:50.543Z,5.1
2018-06-28T17:56:49.826Z,5.3
2018-06-28T17:58:49.976Z,5.1
2018-06-28T18:00:50.057Z,5.4
2018-06-28T18:02:50.321Z,5.1
2018-06-28T18:04:49.847Z,5.4
2018-06-28T18:06:49.675Z,5.1
2018-06-28T18:08:49.848Z,5.1
2018-06-28T18:10:50.291Z,5.2
2018-06-28T18:12:50.618Z,5.2
2018-06-28T18:14:50.191Z,5.4
2018-06-28T18:16:50.448Z,6.3
2018-06-28T18:18:49.548Z,6.3
2018-06-28T18:20:49.832Z,5.0
2018-06-28T18:22:50.414Z,4.9
2018-06-28T18:24:50.482Z,4.7
2018-06-28T18:26:49.730Z,4.7
2018-06-28T18:28:49.837Z,4.9
2018-06-28T18:30:50.010Z,5.0
2018-06-28T18:32:50.090Z,5.3
2018-06-28T18:34:50.426Z,5.3
2018-06-28T18:36:49.675Z,5.1
2018-06-28T18:38:49.810Z,5.1
2018-06-28T18:40:49.889Z,5.3
2018-06-28T18:42:50.018Z,5.4
2018-06-28T18:44:50.117Z,5.4
2018-06-28T18:46:50.375Z,5.0
2018-06-28T18:48:50.421Z,5.4
2018-06-28T18:50:51.031Z,5.0
2018-06-28T18:52:49.606Z,5.1
2018-06-28T18:54:49.656Z,5.1
2018-06-28T18:56:49.876Z,5.4
2018-06-28T18:58:49.986Z,5.0
2018-06-28T19:00:50.064Z,5.0
2018-06-28T19:02:50.161Z,5.0
2018-06-28T19:04:49.534Z,5.0
2018-06-28T19:06:49.702Z,5.1
2018-06-28T19:08:49.904Z,5.0
2018-06-28T19:10:50.022Z,5.1
2018-06-28T19:12:49.593Z,4.9
2018-06-28T19:14:49.690Z,4.9
2018-06-28T19:16:49.949Z,4.6
2018-06-28T19:18:50.312Z,5.1
2018-06-28T19:20:50.458Z,4.9
2018-06-28T19:22:49.656Z,4.6
2018-06-28T19:24:49.850Z,4.6
2018-06-28T19:26:50.089Z,4.4
2018-06-28T19:28:50.163Z,5.0
2018-06-28T19:30:50.333Z,4.6
2018-06-28T19:32:49.718Z,4.5
2018-06-28T19:34:50.092Z,4.5
2018-06-28T19:36:50.275Z,4.6
2018-06-28T19:38:50.409Z,4.6
2018-06-28T19:40:50.486Z,4.8
2018-06-28T19:42:49.643Z,4.5
2018-06-28T19:44:49.533Z,4.5
2018-06-28T19:46:49.803Z,5.1
2018-06-28T19:48:50.168Z,4.8
2018-06-28T19:50:50.290Z,5.0
2018-06-28T19:52:49.573Z,5.0
2018-06-28T19:54:50.215Z,5.0
2018-06-28T19:56:50.481Z,5.0
2018-06-28T19:58:49.575Z,5.0
2018-06-28T20:00:50.014Z,5.0
2018-06-28T20:02:50.224Z,4.8
2018-06-28T20:04:50.512Z,4.8
2018-06-28T20:06:49.589Z,5.0
2018-06-28T20:08:49.684Z,5.0
2018-06-28T20:10:50.029Z,4.9
2018-06-28T20:12:50.113Z,4.9
2018-06-28T20:14:50.318Z,4.5
2018-06-28T20:16:50.457Z,4.7
2018-06-28T20:18:49.519Z,4.5
2018-06-28T20:20:49.718Z,4.8
2018-06-28T20:22:49.986Z,4.8
2018-06-28T20:24:50.177Z,4.5
2018-06-28T20:26:50.483Z,4.5
2018-06-28T20:28:49.524Z,4.5
2018-06-28T20:30:49.606Z,4.3
2018-06-28T20:32:49.695Z,4.3
2018-06-28T20:34:49.852Z,4.4
2018-06-28T20:36:50.103Z,4.7
2018-06-28T20:38:50.175Z,4.4
2018-06-28T20:40:50.278Z,4.4
2018-06-28T20:42:50.408Z,4.2
2018-06-28T20:44:50.772Z,4.4
2018-06-28T20:46:49.935Z,4.1
2018-06-28T20:48:49.998Z,4.6
2018-06-28T20:50:50.211Z,4.6
2018-06-28T20:52:49.776Z,4.7
2018-06-28T20:54:49.924Z,4.7
2018-06-28T20:56:50.145Z,4.9
2018-06-28T20:58:50.444Z,4.9
2018-06-28T21:00:50.500Z,4.6
2018-06-28T21:02:49.588Z,4.3
2018-06-28T21:04:49.876Z,4.9
2018-06-28T21:06:50.077Z,4.8
2018-06-28T21:08:50.272Z,5.0
2018-06-28T21:10:50.395Z,5.0
2018-06-28T21:12:49.555Z,4.7
2018-06-28T21:14:49.686Z,4.6
2018-06-28T21:16:49.875Z,4.1
2018-06-28T21:18:49.994Z,4.1
2018-06-28T21:20:50.113Z,4.2
2018-06-28T21:22:50.318Z,3.9
2018-06-28T21:24:50.601Z,3.9
2018-06-28T21:26:49.940Z,4.1
2018-06-28T21:28:50.516Z,4.1
2018-06-28T21:30:49.615Z,3.8
2018-06-28T21:32:49.797Z,4.0
2018-06-28T21:34:50.295Z,4.1
2018-06-28T21:36:50.058Z,4.1
2018-06-28T21:38:50.227Z,4.5
2018-06-28T21:40:50.445Z,4.2
2018-06-28T21:42:49.614Z,4.2
2018-06-28T21:44:49.688Z,4.0
2018-06-28T21:46:49.899Z,4.1
2018-06-28T21:48:49.978Z,4.1
2018-06-28T21:50:50.140Z,4.1
2018-06-28T21:52:50.275Z,4.5
2018-06-28T21:54:50.392Z,4.5
2018-06-28T21:56:49.611Z,4.0
2018-06-28T21:58:49.807Z,4.0
2018-06-28T22:00:49.974Z,4.1
2018-06-28T22:02:50.150Z,3.7
2018-06-28T22:04:49.622Z,3.7
2018-06-28T22:06:49.834Z,3.8
2018-06-28T22:08:49.968Z,3.7
2018-06-28T22:10:50.137Z,3.9
2018-06-28T22:12:50.445Z,4.4
2018-06-28T22:14:49.712Z,3.8
2018-06-28T22:16:50.212Z,3.8
2018-06-28T22:18:50.282Z,3.8
2018-06-28T22:20:50.469Z,3.8
2018-06-28T22:22:49.530Z,3.9
2018-06-28T22:24:49.764Z,4.2
2018-06-28T22:26:50.013Z,4.2
2018-06-28T22:28:50.143Z,4.0
2018-06-28T22:30:50.306Z,3.8
2018-06-28T22:32:50.442Z,4.1
2018-06-28T22:34:49.959Z,3.9
2018-06-28T22:36:50.231Z,3.9
2018-06-28T22:38:50.340Z,3.9
2018-06-28T22:40:50.416Z,3.8
2018-06-28T22:42:49.547Z,3.8
2018-06-28T22:44:49.721Z,4.0
2018-06-28T22:46:50.015Z,4.0
2018-06-28T22:48:50.121Z,4.1
2018-06-28T22:50:50.191Z,3.9
2018-06-28T22:52:50.302Z,4.0
2018-06-28T22:54:49.551Z,4.0
2018-06-28T22:56:49.792Z,4.1
2018-06-28T22:58:49.860Z,4.3
2018-06-28T23:00:50.001Z,4.3
2018-06-28T23:02:50.169Z,4.4
2018-06-28T23:04:49.571Z,4.4
2018-06-28T23:06:49.756Z,4.2
2018-06-28T23:08:49.841Z,4.3
2018-06-28T23:10:49.947Z,4.0
2018-06-28T23:12:50.128Z,4.1
2018-06-28T23:14:50.237Z,4.1
2018-06-28T23:16:50.467Z,4.3
2018-06-28T23:18:49.528Z,4.4
2018-06-28T23:20:49.629Z,4.2
2018-06-28T23:22:49.809Z,4.5
2018-06-28T23:24:49.886Z,4.5
2018-06-28T23:26:50.198Z,4.2
2018-06-28T23:28:50.280Z,4.2
2018-06-28T23:30:50.432Z,4.5
2018-06-28T23:32:50.635Z,4.5
2018-06-28T23:34:50.110Z,4.5
2018-06-28T23:36:50.481Z,4.3
2018-06-28T23:38:49.574Z,4.3
2018-06-28T23:40:49.636Z,4.3
2018-06-28T23:42:49.773Z,4.3
2018-06-28T23:44:49.910Z,4.3
2018-06-28T23:46:50.204Z,4.3
2018-06-28T23:48:50.281Z,4.6
2018-06-28T23:50:50.458Z,4.6
2018-06-28T23:52:49.609Z,4.4
2018-06-28T23:54:49.742Z,4.4
2018-06-28T23:56:49.898Z,4.6
2018-06-28T23:58:49.992Z,5.0
